createdAt,value
2022-12-05T16:02:59.556Z,7.19
2022-12-05T16:05:35.426Z,7.22
2022-12-05T16:08:06.108Z,7.30
2022-12-05T16:10:35.300Z,7.39
2022-12-05T16:13:05.922Z,7.51
2022-12-05T16:15:34.584Z,7.60
2022-12-05T16:18:06.181Z,7.73
2022-12-05T16:20:35.612Z,7.88
2022-12-05T16:23:05.961Z,8.01
2022-12-05T16:25:35.815Z,8.16
2022-12-05T16:28:16.760Z,8.29
2022-12-05T16:30:55.843Z,8.43
2022-12-05T16:33:25.697Z,8.54
2022-12-05T16:35:54.260Z,8.64
2022-12-05T16:38:25.885Z,8.74
2022-12-05T16:40:59.436Z,8.84
2022-12-05T16:43:42.078Z,8.91
2022-12-05T16:46:44.743Z,9.05
2022-12-05T16:49:34.774Z,9.15
2022-12-05T16:52:05.293Z,9.20
2022-12-05T16:54:33.282Z,9.28
2022-12-05T16:57:02.420Z,9.35
2022-12-05T16:59:34.320Z,9.42
2022-12-05T17:02:03.732Z,9.49
2022-12-05T17:04:33.278Z,9.54
2022-12-05T17:07:01.361Z,9.56
2022-12-05T17:09:29.309Z,9.59
2022-12-05T17:12:04.264Z,9.61
2022-12-05T17:14:32.455Z,9.62
2022-12-05T17:17:03.416Z,9.64
2022-12-05T17:19:33.357Z,9.68
2022-12-05T17:22:02.168Z,9.74
2022-12-05T17:24:30.171Z,9.77
2022-12-05T17:26:58.159Z,9.80
2022-12-05T17:29:27.984Z,9.84
2022-12-05T17:31:59.202Z,9.88
2022-12-05T17:34:27.475Z,9.91
2022-12-05T17:36:56.906Z,9.96
2022-12-05T17:39:28.250Z,9.99
2022-12-05T17:41:56.965Z,10.05
2022-12-05T17:44:25.211Z,10.10
2022-12-05T17:46:53.233Z,10.15
2022-12-05T17:49:22.874Z,10.18
2022-12-05T17:52:20.557Z,10.21
2022-12-05T17:54:43.225Z,10.24
2022-12-05T17:57:11.235Z,10.24
2022-12-05T17:59:39.274Z,10.27
2022-12-05T18:02:07.887Z,10.28
2022-12-05T18:04:36.822Z,10.29
2022-12-05T18:07:04.957Z,10.31
2022-12-05T18:09:32.960Z,10.35
2022-12-05T18:12:02.344Z,10.36
2022-12-05T18:14:30.936Z,10.38
2022-12-05T18:16:59.243Z,10.42
2022-12-05T18:19:27.321Z,10.46
2022-12-05T18:21:55.329Z,10.49
2022-12-05T18:24:23.397Z,10.51
2022-12-05T18:26:51.422Z,10.53
2022-12-05T18:29:20.810Z,10.55
2022-12-05T18:31:48.803Z,10.56
2022-12-05T18:34:16.853Z,10.58
2022-12-05T18:36:44.887Z,10.62
2022-12-05T18:39:15.048Z,10.64
2022-12-05T18:41:43.351Z,10.65
2022-12-05T18:44:11.521Z,10.66
2022-12-05T18:46:41.099Z,10.70
2022-12-05T18:49:09.257Z,10.73
2022-12-05T18:51:37.258Z,10.77
2022-12-05T18:54:05.461Z,10.77
2022-12-05T18:56:35.194Z,10.77
2022-12-05T18:59:05.088Z,10.77
2022-12-05T19:01:35.222Z,10.79
2022-12-05T19:04:06.501Z,10.80
2022-12-05T19:06:36.928Z,10.79
2022-12-05T19:09:06.996Z,10.79
2022-12-05T19:11:35.524Z,10.80
2022-12-05T19:14:05.563Z,10.81
2022-12-05T19:16:35.588Z,10.81
2022-12-05T19:19:07.135Z,10.83
2022-12-05T19:21:36.596Z,10.81
2022-12-05T19:24:06.916Z,10.81
2022-12-05T19:26:36.140Z,10.84
2022-12-05T19:29:04.865Z,10.85
2022-12-05T19:31:33.278Z,10.86
2022-12-05T19:34:03.597Z,10.84
2022-12-05T19:36:35.595Z,10.83
2022-12-05T19:39:09.141Z,10.81
2022-12-05T19:41:37.832Z,10.81
2022-12-05T19:44:06.724Z,10.82
2022-12-05T19:46:35.273Z,10.83
2022-12-05T19:49:06.591Z,10.85
2022-12-05T19:51:36.591Z,10.84
2022-12-05T19:54:07.185Z,10.84
2022-12-05T19:56:36.571Z,10.86
2022-12-05T19:59:05.982Z,10.88
2022-12-05T20:01:35.574Z,10.90
2022-12-05T20:04:05.577Z,10.90
2022-12-05T20:06:36.839Z,10.89
2022-12-05T20:09:06.348Z,10.89
2022-12-05T20:11:34.797Z,10.92
2022-12-05T20:14:03.480Z,10.92
2022-12-05T20:16:33.864Z,10.93
2022-12-05T20:19:02.262Z,10.94
2022-12-05T20:21:32.209Z,10.95
2022-12-05T20:24:03.341Z,10.97
2022-12-05T20:26:33.835Z,10.96
2022-12-05T20:29:03.524Z,10.96
2022-12-05T20:31:34.018Z,10.99
2022-12-05T20:34:02.689Z,11.00
2022-12-05T20:36:32.224Z,11.01
2022-12-05T20:39:03.630Z,11.02
2022-12-05T20:41:32.234Z,11.02
2022-12-05T20:44:01.611Z,11.03
2022-12-05T20:46:31.764Z,11.01
2022-12-05T20:49:00.457Z,11.02
2022-12-05T20:51:30.614Z,11.00
2022-12-05T20:54:00.345Z,10.98
2022-12-05T20:56:31.750Z,10.96
2022-12-05T20:59:02.283Z,10.95
2022-12-05T21:01:32.391Z,10.91
2022-12-05T21:04:01.622Z,10.88
2022-12-05T21:06:31.515Z,10.86
2022-12-05T21:09:01.635Z,10.86
2022-12-05T21:11:32.220Z,10.84
2022-12-05T21:14:04.927Z,10.85
2022-12-05T21:16:33.125Z,10.89
2022-12-05T21:19:01.407Z,10.91
2022-12-05T21:21:31.303Z,10.95
2022-12-05T21:24:01.231Z,10.95
2022-12-05T21:26:32.305Z,10.95
2022-12-05T21:29:00.965Z,10.96
2022-12-05T21:31:30.956Z,10.97
2022-12-05T21:34:00.477Z,10.97
2022-12-05T21:36:30.633Z,10.96
2022-12-05T21:38:58.786Z,10.95
2022-12-05T21:41:27.038Z,10.94
2022-12-05T21:43:56.490Z,10.94
2022-12-05T21:46:24.653Z,10.94
2022-12-05T21:48:52.902Z,10.93
2022-12-05T21:51:21.284Z,10.95
2022-12-05T21:53:49.975Z,10.96
2022-12-05T21:56:19.782Z,10.98
2022-12-05T21:58:48.573Z,10.99
2022-12-05T22:01:21.433Z,10.99
2022-12-05T22:03:52.839Z,10.99
2022-12-05T22:06:21.026Z,10.95
2022-12-05T22:08:49.074Z,10.93
